Overview Statistics Trail Chart Weather Telemetry Raw packets
 

This is the latest recevied weather packets stored in our database for station/object IU5GBO-13. If no packets are shown the sender has not sent any weather packets the latest 10 day(s).

<< 45 46 47 48 49 50 51 >>
Time Temp. Humidity Pressure Rain* Wind** Luminosity Snow
1777370770 23.89° C 40% 1017.9 hPa - - - -
1777370171 23.33° C 42% 1017.9 hPa - - - -
1777369571 23.89° C 42% 1017.9 hPa - - - -
1777368971 23.33° C 43% 1017.9 hPa - - - -
1777368370 23.33° C 43% 1017.9 hPa - - - -
1777367771 22.78° C 45% 1018 hPa - - - -
1777367170 22.22° C 49% 1018.1 hPa - - - -
1777366570 22.22° C 47% 1018 hPa - - - -
1777365970 22.22° C 49% 1018 hPa - - - -
1777365370 22.22° C 52% 1018.1 hPa - - - -
1777364771 21.67° C 53% 1018 hPa - - - -
1777364170 21.11° C 54% 1018 hPa - - - -
1777363570 20° C 57% 1018 hPa - - - -
1777362971 20° C 57% 1018 hPa - - - -
1777362371 20° C 58% 1018.1 hPa - - - -
1777361771 20° C 58% 1018.1 hPa - - - -
1777361172 20° C 58% 1018 hPa - - - -
1777360571 19.44° C 60% 1018.1 hPa - - - -
1777359971 18.89° C 60% 1018.2 hPa - - - -
1777359371 18.33° C 61% 1018.1 hPa - - - -
1777358771 18.33° C 62% 1018.2 hPa - - - -
1777358170 17.22° C 62% 1018.2 hPa - - - -
1777357571 15.56° C 66% 1018.1 hPa - - - -
1777356970 14.44° C 70% 1018.1 hPa - - - -
1777356370 13.33° C 74% 1018.2 hPa - - - -

* Rain since midnight (hover to see other rain measurements)
** Current wind speed in m/s (hover to see current wind gust speed)